createdAt,value
2018-09-13T00:01:13.168Z,12.67
2018-09-13T00:03:41.502Z,12.77
2018-09-13T00:06:09.826Z,12.68
2018-09-13T00:08:38.207Z,12.64
2018-09-13T00:11:06.776Z,12.56
2018-09-13T00:13:35.113Z,12.73
2018-09-13T00:16:04.475Z,12.68
2018-09-13T00:18:32.808Z,12.70
2018-09-13T00:21:01.200Z,12.69
2018-09-13T00:23:29.708Z,12.69
2018-09-13T00:25:58.040Z,12.69
2018-09-13T00:28:26.369Z,12.79
2018-09-13T00:30:54.712Z,12.69
2018-09-13T00:33:23.031Z,12.64
2018-09-13T00:35:51.362Z,12.63
2018-09-13T00:38:19.691Z,12.56
2018-09-13T00:40:48.092Z,12.49
2018-09-13T00:43:16.428Z,12.48
2018-09-13T00:45:44.797Z,12.61
2018-09-13T00:48:13.134Z,12.53
2018-09-13T00:50:41.488Z,12.55
2018-09-13T00:53:10.084Z,12.61
2018-09-13T00:55:38.514Z,12.52
2018-09-13T00:58:06.894Z,12.49
2018-09-13T01:00:35.373Z,12.43
2018-09-13T01:03:03.720Z,12.38
2018-09-13T01:05:32.093Z,12.34
2018-09-13T01:08:01.565Z,12.35
2018-09-13T01:10:29.964Z,12.32
2018-09-13T01:12:58.304Z,12.27
2018-09-13T01:15:26.671Z,12.23
2018-09-13T01:17:55.040Z,12.19
2018-09-13T01:20:23.384Z,12.13
2018-09-13T01:22:51.833Z,12.11
2018-09-13T01:25:20.184Z,12.06
2018-09-13T01:27:48.612Z,12.12
2018-09-13T01:30:17.192Z,12.14
2018-09-13T01:32:45.604Z,12.15
2018-09-13T01:35:13.948Z,12.07
2018-09-13T01:37:43.332Z,12.11
2018-09-13T01:40:11.689Z,12.19
2018-09-13T01:42:40.016Z,12.12
2018-09-13T01:45:08.385Z,12.16
2018-09-13T01:47:36.716Z,12.05
2018-09-13T01:50:05.121Z,11.93
2018-09-13T01:52:33.736Z,12.00
2018-09-13T01:55:02.092Z,11.93
2018-09-13T01:57:30.633Z,11.94
2018-09-13T01:59:58.992Z,11.83
2018-09-13T02:02:27.392Z,11.81
2018-09-13T02:04:55.756Z,11.70
2018-09-13T02:07:24.104Z,11.66
2018-09-13T02:09:52.425Z,11.57
2018-09-13T02:12:20.741Z,11.56
2018-09-13T02:14:49.084Z,11.52
2018-09-13T02:17:18.465Z,11.47
2018-09-13T02:19:46.771Z,11.54
2018-09-13T02:22:15.109Z,11.59
2018-09-13T02:24:43.437Z,11.58
2018-09-13T02:27:11.756Z,11.50
2018-09-13T02:29:40.099Z,11.50
2018-09-13T02:32:08.412Z,11.64
2018-09-13T02:34:36.733Z,11.64
2018-09-13T02:37:06.074Z,11.70
2018-09-13T02:39:34.392Z,11.59
2018-09-13T02:42:02.746Z,11.49
2018-09-13T02:44:31.089Z,11.58
2018-09-13T02:46:59.396Z,11.52
2018-09-13T02:49:27.773Z,11.53
2018-09-13T02:51:56.124Z,11.39
2018-09-13T02:54:24.508Z,11.35
2018-09-13T02:56:52.816Z,11.34
2018-09-13T02:59:21.229Z,11.43
2018-09-13T03:01:49.540Z,11.52
2018-09-13T03:04:17.844Z,11.51
2018-09-13T03:06:46.356Z,11.52
2018-09-13T03:09:14.672Z,11.56
2018-09-13T03:11:43.956Z,11.50
2018-09-13T03:14:12.803Z,11.50
2018-09-13T03:16:41.505Z,11.44
2018-09-13T03:19:09.871Z,11.39
2018-09-13T03:21:38.210Z,11.38
2018-09-13T03:24:06.538Z,11.36
2018-09-13T03:26:34.889Z,11.21
2018-09-13T03:29:03.265Z,11.21
2018-09-13T03:31:31.617Z,11.19
2018-09-13T03:33:59.969Z,11.27
2018-09-13T03:36:28.300Z,11.22
2018-09-13T03:38:56.616Z,11.23
2018-09-13T03:41:26.001Z,11.19
2018-09-13T03:43:54.321Z,11.16
2018-09-13T03:46:22.641Z,11.13
2018-09-13T03:48:50.953Z,11.08
2018-09-13T03:51:19.273Z,11.10
2018-09-13T03:53:47.588Z,11.06
2018-09-13T03:56:15.924Z,11.12
2018-09-13T03:58:44.292Z,10.95
2018-09-13T04:01:12.884Z,10.97
2018-09-13T04:03:41.244Z,11.23
2018-09-13T04:06:09.612Z,11.16
2018-09-13T04:08:37.986Z,11.21
2018-09-13T04:11:06.662Z,11.31
2018-09-13T04:13:35.017Z,11.21
2018-09-13T04:16:03.383Z,11.18
2018-09-13T04:18:31.713Z,11.18
2018-09-13T04:21:00.024Z,11.10
2018-09-13T04:23:28.385Z,11.24
2018-09-13T04:25:56.704Z,11.17
2018-09-13T04:28:25.009Z,11.29
2018-09-13T04:30:53.333Z,11.32
2018-09-13T04:33:23.668Z,11.42
2018-09-13T04:35:52.450Z,11.44
2018-09-13T04:38:20.640Z,11.53
2018-09-13T04:40:48.948Z,11.55
2018-09-13T04:43:17.312Z,11.62
2018-09-13T04:45:45.696Z,11.62
2018-09-13T04:48:14.102Z,11.57
2018-09-13T04:50:42.420Z,11.50
2018-09-13T04:53:10.816Z,11.54
2018-09-13T04:55:39.127Z,11.50
2018-09-13T04:58:07.469Z,11.36
2018-09-13T05:00:35.788Z,11.48
2018-09-13T05:03:04.116Z,11.49
2018-09-13T05:05:32.429Z,11.50
2018-09-13T05:08:00.768Z,11.47
2018-09-13T05:10:29.084Z,11.58
2018-09-13T05:12:57.526Z,11.69
2018-09-13T05:15:25.752Z,11.73
2018-09-13T05:17:54.081Z,11.78
2018-09-13T05:20:22.420Z,11.76
2018-09-13T05:22:50.740Z,11.81
2018-09-13T05:25:19.116Z,11.74
2018-09-13T05:27:48.524Z,11.78
2018-09-13T05:30:16.880Z,11.82
2018-09-13T05:32:45.719Z,11.88
2018-09-13T05:35:14.264Z,12.22
2018-09-13T05:37:42.640Z,11.89
2018-09-13T05:40:10.977Z,11.94
2018-09-13T05:42:39.309Z,12.08
2018-09-13T05:45:07.633Z,12.19
2018-09-13T05:47:35.964Z,12.38
2018-09-13T05:50:04.340Z,12.42
2018-09-13T05:52:32.676Z,12.50
2018-09-13T05:55:01.000Z,12.53
2018-09-13T05:57:29.615Z,12.60
2018-09-13T05:59:57.924Z,12.69
2018-09-13T06:02:26.277Z,12.73
2018-09-13T06:04:54.601Z,12.77
2018-09-13T06:07:22.940Z,12.80
2018-09-13T06:09:51.320Z,12.93
2018-09-13T06:12:19.656Z,13.06
2018-09-13T06:14:48.029Z,13.28
2018-09-13T06:17:16.412Z,13.24
2018-09-13T06:19:44.845Z,13.39
2018-09-13T06:22:13.247Z,13.52
2018-09-13T06:24:41.588Z,13.62
2018-09-13T06:27:11.033Z,13.64
2018-09-13T06:29:39.490Z,13.80
2018-09-13T06:32:07.761Z,14.01
2018-09-13T06:34:36.084Z,14.20
2018-09-13T06:37:04.444Z,14.25
2018-09-13T06:39:32.766Z,14.34
2018-09-13T06:42:01.216Z,14.40
2018-09-13T06:44:29.540Z,14.51
2018-09-13T06:46:57.878Z,14.61
2018-09-13T06:49:26.200Z,14.73
2018-09-13T06:51:54.548Z,14.68
2018-09-13T06:54:22.861Z,14.85
2018-09-13T06:56:51.193Z,15.37
2018-09-13T06:59:19.968Z,15.71
2018-09-13T07:01:48.304Z,16.15
2018-09-13T07:04:16.661Z,16.43
2018-09-13T07:06:44.980Z,16.77
2018-09-13T07:09:14.881Z,17.52
2018-09-13T07:11:44.188Z,17.71
2018-09-13T07:14:12.542Z,17.79
2018-09-13T07:16:44.063Z,17.09
2018-09-13T07:19:12.686Z,16.83
2018-09-13T07:21:41.315Z,16.56
2018-09-13T07:24:09.646Z,16.13
2018-09-13T07:26:38.212Z,16.16
2018-09-13T07:29:06.549Z,15.94
2018-09-13T07:31:34.853Z,16.25
2018-09-13T07:34:03.368Z,16.50
2018-09-13T07:36:31.688Z,16.64
2018-09-13T07:39:00.925Z,16.67
2018-09-13T07:41:29.292Z,16.58
2018-09-13T07:43:57.612Z,16.50
2018-09-13T07:46:25.997Z,16.54
2018-09-13T07:48:54.330Z,16.58
2018-09-13T07:51:22.661Z,16.79
2018-09-13T07:53:50.988Z,17.09
2018-09-13T07:56:20.355Z,17.30
2018-09-13T07:58:48.840Z,17.39
2018-09-13T08:01:17.191Z,17.34
2018-09-13T08:03:45.516Z,17.55
2018-09-13T08:06:13.840Z,17.51
2018-09-13T08:08:42.148Z,17.62
2018-09-13T08:11:10.460Z,17.85
2018-09-13T08:13:38.779Z,18.04
2018-09-13T08:16:07.103Z,18.07
2018-09-13T08:18:35.447Z,17.69
2018-09-13T08:21:03.872Z,17.93
2018-09-13T08:23:32.200Z,17.96
2018-09-13T08:26:00.637Z,18.05
2018-09-13T08:28:29.012Z,18.17
2018-09-13T08:30:58.336Z,18.26
2018-09-13T08:33:26.766Z,18.18
2018-09-13T08:35:56.003Z,18.02
2018-09-13T08:38:25.505Z,17.55
2018-09-13T08:40:53.927Z,17.99
2018-09-13T08:43:22.244Z,17.98
2018-09-13T08:45:50.791Z,18.25
2018-09-13T08:48:19.116Z,18.66
2018-09-13T08:50:47.510Z,18.60
2018-09-13T08:53:15.836Z,18.06
2018-09-13T08:55:44.144Z,17.57
2018-09-13T08:58:12.459Z,17.81
2018-09-13T09:00:40.826Z,18.19
2018-09-13T09:03:09.119Z,18.28
2018-09-13T09:05:37.560Z,17.77
2018-09-13T09:08:05.925Z,18.24
2018-09-13T09:10:34.247Z,18.14
2018-09-13T09:13:02.572Z,18.73
2018-09-13T09:15:31.951Z,18.13
2018-09-13T09:18:00.306Z,17.91
2018-09-13T09:20:28.869Z,18.28
2018-09-13T09:22:57.247Z,18.12
2018-09-13T09:25:25.614Z,17.90
2018-09-13T09:27:53.951Z,17.87
2018-09-13T09:30:22.333Z,18.02
2018-09-13T09:32:51.872Z,17.85
2018-09-13T09:35:20.209Z,18.32
2018-09-13T09:37:48.588Z,18.84
2018-09-13T09:40:16.925Z,19.04
2018-09-13T09:42:46.348Z,18.76
2018-09-13T09:45:15.874Z,18.84
2018-09-13T09:47:45.227Z,18.62
2018-09-13T09:50:13.654Z,18.43
2018-09-13T09:52:42.057Z,18.56
2018-09-13T09:55:10.390Z,18.47
2018-09-13T09:57:40.572Z,18.94
2018-09-13T10:00:08.968Z,18.54
2018-09-13T10:02:37.390Z,18.66
2018-09-13T10:05:05.748Z,18.63
2018-09-13T10:07:34.100Z,18.43
2018-09-13T10:10:02.476Z,18.12
2018-09-13T10:12:30.832Z,18.69
2018-09-13T10:15:04.393Z,18.99
2018-09-13T10:17:38.128Z,19.05
2018-09-13T10:20:11.682Z,18.93
2018-09-13T10:22:45.469Z,19.35
2018-09-13T10:30:26.201Z,18.95
2018-09-13T10:32:59.905Z,18.79
2018-09-13T10:35:33.653Z,18.59
2018-09-13T10:38:07.412Z,19.20
2018-09-13T10:40:41.245Z,19.32
2018-09-13T10:43:14.957Z,19.11
2018-09-13T10:45:48.698Z,18.90
2018-09-13T10:48:22.081Z,18.48
2018-09-13T10:50:55.609Z,17.77
2018-09-13T10:53:29.328Z,17.66
2018-09-13T10:55:57.708Z,17.66
2018-09-13T10:58:26.064Z,18.06
2018-09-13T11:00:54.447Z,18.21
2018-09-13T11:03:22.859Z,18.36
2018-09-13T11:05:51.204Z,18.73
2018-09-13T11:08:19.533Z,18.68
2018-09-13T11:10:48.203Z,18.41
2018-09-13T11:13:25.661Z,18.16
2018-09-13T11:15:54.021Z,18.26
2018-09-13T11:18:22.370Z,18.68
2018-09-13T11:20:51.760Z,18.85
2018-09-13T11:23:20.289Z,18.88
2018-09-13T11:25:48.692Z,19.02
2018-09-13T11:28:17.025Z,19.15
2018-09-13T11:30:47.942Z,19.40
2018-09-13T11:33:16.276Z,19.38
2018-09-13T11:35:44.706Z,19.49
2018-09-13T11:38:13.068Z,19.41
2018-09-13T11:40:41.640Z,19.53
2018-09-13T11:43:09.736Z,19.62
2018-09-13T11:45:38.280Z,19.32
2018-09-13T11:48:06.681Z,19.26
2018-09-13T11:50:35.097Z,19.81
2018-09-13T11:53:03.513Z,20.01
2018-09-13T11:55:31.856Z,19.97
2018-09-13T11:58:01.356Z,19.57
2018-09-13T12:00:29.965Z,19.39
2018-09-13T12:02:58.345Z,19.57
2018-09-13T12:05:26.788Z,19.73
2018-09-13T12:07:55.148Z,19.37
2018-09-13T12:10:23.476Z,19.07
2018-09-13T12:12:52.543Z,19.04
2018-09-13T12:15:21.037Z,19.35
2018-09-13T12:17:49.418Z,19.43
2018-09-13T12:20:18.588Z,19.52
2018-09-13T12:22:46.968Z,19.92
2018-09-13T12:25:15.365Z,20.13
2018-09-13T12:27:43.720Z,20.31
2018-09-13T12:30:13.072Z,20.01
2018-09-13T12:32:41.669Z,20.38
2018-09-13T12:35:09.996Z,20.19
2018-09-13T12:37:39.453Z,20.46
2018-09-13T12:40:08.405Z,20.76
2018-09-13T12:42:36.897Z,20.43
2018-09-13T12:45:05.592Z,20.13
2018-09-13T12:47:33.944Z,20.16
2018-09-13T12:50:02.337Z,20.34
2018-09-13T12:52:30.656Z,19.80
2018-09-13T12:54:58.989Z,19.95
2018-09-13T12:57:27.404Z,19.96
2018-09-13T12:59:55.744Z,20.14
2018-09-13T13:02:24.129Z,20.47
2018-09-13T13:04:52.469Z,20.25
2018-09-13T13:07:20.832Z,20.23
2018-09-13T13:09:50.244Z,20.07
2018-09-13T13:12:18.600Z,20.75
2018-09-13T13:14:47.109Z,20.81
2018-09-13T13:17:15.489Z,21.21
2018-09-13T13:19:43.830Z,21.12
2018-09-13T13:22:12.349Z,21.08
2018-09-13T13:24:40.787Z,20.94
2018-09-13T13:27:09.102Z,20.01
2018-09-13T13:29:37.851Z,19.91
2018-09-13T13:32:06.915Z,19.60
2018-09-13T13:34:36.356Z,19.51
2018-09-13T13:37:05.172Z,19.72
2018-09-13T13:39:33.496Z,19.77
2018-09-13T13:42:01.873Z,19.83
2018-09-13T13:44:30.413Z,19.46
2018-09-13T13:46:58.751Z,20.22
2018-09-13T13:49:29.086Z,20.52
2018-09-13T13:51:58.432Z,20.73
2018-09-13T13:54:26.759Z,20.89
2018-09-13T13:56:55.079Z,20.98
2018-09-13T13:59:23.569Z,21.19
2018-09-13T14:01:52.260Z,20.82
2018-09-13T14:04:20.576Z,20.03
2018-09-13T14:06:48.952Z,19.15
2018-09-13T14:09:17.271Z,18.92
2018-09-13T14:11:45.600Z,18.95
2018-09-13T14:14:13.980Z,18.97
2018-09-13T14:16:42.291Z,19.00
2018-09-13T14:19:10.605Z,18.95
2018-09-13T14:21:38.962Z,19.28
2018-09-13T14:24:07.340Z,19.49
2018-09-13T14:26:35.656Z,19.48
2018-09-13T14:29:04.007Z,19.81
2018-09-13T14:31:32.360Z,20.01
2018-09-13T14:34:00.673Z,20.56
2018-09-13T14:36:29.036Z,20.83
2018-09-13T14:38:57.372Z,21.02
2018-09-13T14:41:25.710Z,21.31
2018-09-13T14:43:54.067Z,21.87
2018-09-13T14:46:22.415Z,23.79
2018-09-13T14:48:50.741Z,23.53
2018-09-13T14:51:19.708Z,22.65
2018-09-13T14:53:48.028Z,22.20
2018-09-13T14:56:16.390Z,22.24
2018-09-13T14:58:45.032Z,22.68
2018-09-13T15:01:13.345Z,21.56
2018-09-13T15:03:41.664Z,20.65
2018-09-13T15:06:10.096Z,20.36
2018-09-13T15:08:38.431Z,20.05
2018-09-13T15:11:06.769Z,20.50
2018-09-13T15:13:35.117Z,22.60
2018-09-13T15:16:03.449Z,25.22
2018-09-13T15:18:31.764Z,28.18
2018-09-13T15:21:00.272Z,29.53
2018-09-13T15:23:28.701Z,31.31
2018-09-13T15:25:57.116Z,31.23
2018-09-13T15:28:25.456Z,32.39
2018-09-13T15:30:53.937Z,32.75
2018-09-13T15:33:22.424Z,32.39
2018-09-13T15:35:50.756Z,30.09
2018-09-13T15:38:19.192Z,26.42
2018-09-13T15:40:47.532Z,23.93
2018-09-13T15:43:15.857Z,21.25
2018-09-13T15:45:44.193Z,20.57
2018-09-13T15:48:12.540Z,23.08
2018-09-13T15:50:40.857Z,21.90
2018-09-13T15:53:09.192Z,21.93
2018-09-13T15:55:37.508Z,22.38
2018-09-13T15:58:07.136Z,23.24
2018-09-13T16:00:35.453Z,21.35
2018-09-13T16:03:03.789Z,20.17
2018-09-13T16:05:32.139Z,20.03
2018-09-13T16:08:00.514Z,21.45
2018-09-13T16:10:28.859Z,23.98
2018-09-13T16:12:58.352Z,24.22
2018-09-13T16:15:26.604Z,25.81
2018-09-13T16:17:54.956Z,25.70
2018-09-13T16:20:26.228Z,24.56
2018-09-13T16:22:52.643Z,26.34
2018-09-13T16:25:20.979Z,25.53
2018-09-13T16:27:49.292Z,23.38
2018-09-13T16:30:17.613Z,22.98
2018-09-13T16:32:45.975Z,24.11
2018-09-13T16:35:14.454Z,23.53
2018-09-13T16:37:51.266Z,24.15
2018-09-13T16:40:24.765Z,23.34
2018-09-13T16:42:59.232Z,21.14
2018-09-13T16:45:28.632Z,20.51
2018-09-13T16:48:01.400Z,19.94
2018-09-13T16:50:29.793Z,19.34
2018-09-13T16:52:58.168Z,18.96
2018-09-13T16:55:26.473Z,18.19
2018-09-13T16:57:54.816Z,18.30
2018-09-13T17:00:24.475Z,18.19
2018-09-13T17:02:53.000Z,18.19
2018-09-13T17:05:21.388Z,17.89
2018-09-13T17:07:49.712Z,17.72
2018-09-13T17:10:18.051Z,17.56
2018-09-13T17:12:46.781Z,17.48
2018-09-13T17:15:15.141Z,17.51
2018-09-13T17:17:43.533Z,17.38
2018-09-13T17:20:11.978Z,17.14
2018-09-13T17:22:40.294Z,17.00
2018-09-13T17:25:08.657Z,16.84
2018-09-13T17:27:37.001Z,16.89
2018-09-13T17:30:05.907Z,16.82
2018-09-13T17:32:34.258Z,16.71
2018-09-13T17:35:02.572Z,16.55
2018-09-13T17:37:30.907Z,16.53
2018-09-13T17:39:59.248Z,16.48
2018-09-13T17:42:27.556Z,16.38
2018-09-13T17:44:56.059Z,16.29
2018-09-13T17:47:24.680Z,16.35
2018-09-13T17:49:54.346Z,16.24
2018-09-13T17:52:22.669Z,16.16
2018-09-13T17:54:51.092Z,16.13
2018-09-13T17:57:20.453Z,16.01
2018-09-13T17:59:48.816Z,15.96
2018-09-13T18:02:18.338Z,15.86
2018-09-13T18:04:46.665Z,15.87
2018-09-13T18:07:15.001Z,15.82
2018-09-13T18:09:43.366Z,15.72
2018-09-13T18:12:11.702Z,15.62
2018-09-13T18:14:40.041Z,15.75
2018-09-13T18:17:08.402Z,15.73
2018-09-13T18:19:36.745Z,15.67
2018-09-13T18:22:05.100Z,15.65
2018-09-13T18:24:33.473Z,15.56
2018-09-13T18:27:01.934Z,15.46
2018-09-13T18:29:30.261Z,15.48
2018-09-13T18:31:59.815Z,15.49
2018-09-13T18:34:28.149Z,15.48
2018-09-13T18:36:56.481Z,15.38
2018-09-13T18:39:24.808Z,15.39
2018-09-13T18:41:53.137Z,15.27
2018-09-13T18:44:21.498Z,15.21
2018-09-13T18:46:49.837Z,15.24
2018-09-13T18:49:18.178Z,15.17
2018-09-13T18:51:46.533Z,15.10
2018-09-13T18:54:14.893Z,15.11
2018-09-13T18:56:43.213Z,15.18
2018-09-13T18:59:11.761Z,15.11
2018-09-13T19:01:40.285Z,14.98
2018-09-13T19:04:08.646Z,14.89
2018-09-13T19:06:37.192Z,14.90
2018-09-13T19:09:08.124Z,14.91
2018-09-13T19:11:36.574Z,14.86
2018-09-13T19:14:05.139Z,14.77
2018-09-13T19:16:33.460Z,14.80
2018-09-13T19:19:01.785Z,14.77
2018-09-13T19:21:30.118Z,14.70
2018-09-13T19:23:58.454Z,14.73
2018-09-13T19:26:26.792Z,14.67
2018-09-13T19:28:55.109Z,14.61
2018-09-13T19:31:23.436Z,14.62
2018-09-13T19:33:51.744Z,14.51
2018-09-13T19:36:20.068Z,14.48
2018-09-13T19:38:49.416Z,14.54
2018-09-13T19:41:17.848Z,14.42
2018-09-13T19:43:46.224Z,14.37
2018-09-13T19:46:14.566Z,14.44
2018-09-13T19:48:42.886Z,14.41
2018-09-13T19:51:11.259Z,14.36
2018-09-13T19:53:39.580Z,14.35
2018-09-13T19:56:07.956Z,14.31
2018-09-13T19:58:37.361Z,14.15
2018-09-13T20:01:05.724Z,14.08
2018-09-13T20:03:35.155Z,14.05
2018-09-13T20:06:03.584Z,13.99
2018-09-13T20:08:32.011Z,13.91
2018-09-13T20:11:00.369Z,13.90
2018-09-13T20:13:28.693Z,13.93
2018-09-13T20:15:57.040Z,13.96
2018-09-13T20:18:25.413Z,13.91
2018-09-13T20:20:53.748Z,13.85
2018-09-13T20:23:22.065Z,13.86
2018-09-13T20:25:50.409Z,13.85
2018-09-13T20:28:18.773Z,13.83
2018-09-13T20:30:47.104Z,13.77
2018-09-13T20:33:15.648Z,13.78
2018-09-13T20:35:43.991Z,13.79
2018-09-13T20:38:12.310Z,13.65
2018-09-13T20:40:40.632Z,13.66
2018-09-13T20:43:08.948Z,13.76
2018-09-13T20:45:38.334Z,13.67
2018-09-13T20:48:06.721Z,13.70
2018-09-13T20:50:35.164Z,13.66
2018-09-13T20:53:03.501Z,13.64
2018-09-13T20:55:31.917Z,13.65
2018-09-13T20:58:00.245Z,13.64
2018-09-13T21:00:28.621Z,13.55
2018-09-13T21:02:56.952Z,13.59
2018-09-13T21:05:25.300Z,13.58
2018-09-13T21:07:53.649Z,13.49
2018-09-13T21:10:22.073Z,13.51
2018-09-13T21:12:50.408Z,13.37
2018-09-13T21:15:19.768Z,13.43
2018-09-13T21:17:48.097Z,13.49
2018-09-13T21:20:17.555Z,13.48
2018-09-13T21:22:45.891Z,13.36
2018-09-13T21:25:14.237Z,13.31
2018-09-13T21:27:42.549Z,13.38
2018-09-13T21:30:10.973Z,13.28
2018-09-13T21:32:39.472Z,13.31
2018-09-13T21:35:07.786Z,13.30
2018-09-13T21:37:36.128Z,13.27
2018-09-13T21:40:04.501Z,13.27
2018-09-13T21:42:32.820Z,13.11
2018-09-13T21:45:01.477Z,13.10
2018-09-13T21:47:29.817Z,12.99
2018-09-13T21:49:58.155Z,12.98
2018-09-13T21:52:26.480Z,12.93
2018-09-13T21:54:54.900Z,12.96
2018-09-13T21:57:23.240Z,12.95
2018-09-13T21:59:51.568Z,13.04
2018-09-13T22:02:19.918Z,12.93
2018-09-13T22:04:48.244Z,12.96
2018-09-13T22:07:16.601Z,12.88
2018-09-13T22:09:44.921Z,12.91
2018-09-13T22:12:13.528Z,12.91
2018-09-13T22:14:42.028Z,12.88
2018-09-13T22:17:10.827Z,12.80
2018-09-13T22:19:39.170Z,12.88
2018-09-13T22:22:07.572Z,12.84
2018-09-13T22:24:35.913Z,12.77
2018-09-13T22:27:04.267Z,12.71
2018-09-13T22:29:32.696Z,12.65
2018-09-13T22:32:01.115Z,12.73
2018-09-13T22:34:29.476Z,12.72
2018-09-13T22:36:58.120Z,12.63
2018-09-13T22:39:26.436Z,12.66
2018-09-13T22:41:54.763Z,12.57
2018-09-13T22:44:23.116Z,12.55
2018-09-13T22:46:51.468Z,12.54
2018-09-13T22:49:19.779Z,12.56
2018-09-13T22:51:48.407Z,12.52
2018-09-13T22:54:16.723Z,12.53
2018-09-13T22:56:45.036Z,12.52
2018-09-13T22:59:13.377Z,12.39
2018-09-13T23:01:41.703Z,12.40
2018-09-13T23:04:10.032Z,12.38
2018-09-13T23:06:39.825Z,12.41
2018-09-13T23:09:09.972Z,12.45
2018-09-13T23:11:38.301Z,12.38
2018-09-13T23:14:06.656Z,12.38
2018-09-13T23:16:34.984Z,12.29
2018-09-13T23:19:03.317Z,12.27
2018-09-13T23:21:31.885Z,12.36
2018-09-13T23:24:00.335Z,12.25
2018-09-13T23:26:28.656Z,12.27
2018-09-13T23:28:57.416Z,12.23
2018-09-13T23:31:25.740Z,12.18
2018-09-13T23:33:54.525Z,12.26
2018-09-13T23:36:23.036Z,12.16
2018-09-13T23:38:51.388Z,12.04
2018-09-13T23:41:19.796Z,11.95
2018-09-13T23:43:48.137Z,11.87
2018-09-13T23:46:17.555Z,11.85
2018-09-13T23:48:46.077Z,11.89
2018-09-13T23:51:14.404Z,11.92
2018-09-13T23:53:42.732Z,11.91
2018-09-13T23:56:11.052Z,11.77
2018-09-13T23:58:39.388Z,11.74
